Latest Weather Observations for PORTABLE QFRJ (North Tamborine)

IDQ60801

Issued at 1:02 pm EST Wednesday 19 September 2018 (issued every 10 minutes, with the page automatically refreshed every 10 minutes)

About weather observations | Map of weather stations | Latest weather observations for QLD | Other Formats
Station Details ID: 250074 Name: PORTABLE QFRJ (NORTH TAMBORINE) Lat: -27.94 Lon: 153.19 Height: 527.0 m
Data from the previous 72 hours. | See also: Recent months for locations in Queensland
Date/Time
EST
Temp
°C
App
Temp
°C
Dew
Point
°C
Rel
Hum
%
Delta-T
°C
Wind Press
QNH
hPa
Press
MSL
hPa
Rain since
9am
mm
Dir  Spd
km/h
Gust
km/h
Spd
kts
Gust
kts
19/12:50pm 20.6 18.3 10.3 51 5.7 NW 13 17 7 9 - - 0.0
19/12:40pm 20.6 17.9 10.4 52 5.7 NW 15 22 8 12 - - 0.0
19/12:30pm 20.2 16.7 10.3 53 5.5 WNW 19 24 10 13 - - 0.0
19/12:20pm 20.0 17.4 10.7 55 5.2 NW 15 20 8 11 - - 0.0
19/12:10pm 19.9 17.2 10.4 54 5.3 NW 15 22 8 12 - - 0.0
19/12:00pm 19.6 17.3 10.3 55 5.1 NW 13 20 7 11 - - 0.0
19/11:50am 19.0 16.6 10.1 56 4.9 NW 13 19 7 10 - - 0.0
19/11:40am 19.2 16.3 9.8 54 5.1 NW 15 20 8 11 - - 0.0
19/11:30am 19.4 17.9 10.4 56 5.0 NNW 9 15 5 8 - - 0.0
19/11:20am 18.6 16.0 10.6 59 4.4 NW 15 20 8 11 - - 0.0
19/11:10am 18.5 15.6 9.8 57 4.7 WNW 15 19 8 10 - - 0.0
19/11:00am 18.3 16.0 10.6 61 4.2 WNW 13 20 7 11 - - 0.0
19/10:50am 17.9 16.1 10.7 62 4.0 NW 11 19 6 10 - - 0.0
19/10:40am 17.9 15.6 10.4 61 4.1 NNW 13 19 7 10 - - 0.0
19/10:30am 17.6 15.3 10.5 63 3.9 NW 13 19 7 10 - - 0.0
19/10:20am 17.4 15.1 10.5 64 3.8 NW 13 20 7 11 - - 0.0
19/10:10am 17.4 15.1 10.6 64 3.7 NW 13 22 7 12 - - 0.0
19/10:00am 17.2 14.9 10.6 65 3.6 NNW 13 20 7 11 - - 0.0
19/09:50am 16.7 13.5 10.0 64 3.6 NW 17 20 9 11 - - 0.0
19/09:40am 16.1 13.4 10.3 68 3.1 NW 15 19 8 10 - - 0.0
19/09:30am 16.1 12.7 10.7 70 2.9 WNW 19 22 10 12 - - 0.0
19/09:20am 16.6 14.2 11.3 71 2.9 NW 15 22 8 12 - - 0.0
19/09:10am 16.3 13.8 11.2 72 2.8 NW 15 19 8 10 - - 0.0
19/09:00am 15.9 13.0 10.9 72 2.7 NW 17 22 9 12 - - 0.0
19/08:50am 16.0 13.2 11.4 74 2.5 WNW 17 24 9 13 - - 0.0
19/08:40am 16.0 13.1 11.1 72 2.7 NW 17 19 9 10 - - 0.0
19/08:30am 16.1 13.9 10.8 71 2.9 WNW 13 17 7 9 - - 0.0
19/08:20am 15.9 13.8 11.3 74 2.5 WNW 13 17 7 9 - - 0.0
19/08:10am 15.7 13.6 11.1 74 2.5 NW 13 19 7 10 - - 0.0
19/08:00am 15.6 13.8 10.8 73 2.6 NW 11 13 6 7 - - 0.0
19/07:50am 15.3 13.6 11.1 76 2.3 WNW 11 13 6 7 - - 0.0
19/07:40am 15.0 13.7 11.3 78 2.0 WNW 9 11 5 6 - - 0.0
19/07:30am 14.7 13.1 11.5 81 1.8 WNW 11 13 6 7 - - 0.0
19/07:20am 14.5 12.4 11.3 81 1.8 W 13 15 7 8 - - 0.0
19/07:10am 14.3 13.1 11.5 83 1.5 WNW 9 11 5 6 - - 0.0
19/07:00am 14.0 12.4 11.4 84 1.4 WNW 11 13 6 7 - - 0.0
19/06:50am 14.1 12.5 11.4 84 1.5 WNW 11 13 6 7 - - 0.0
19/06:40am 14.1 12.8 11.3 83 1.5 NW 9 13 5 7 - - 0.0
19/06:30am 13.7 12.4 11.4 86 1.3 WNW 9 11 5 6 - - 0.0
19/06:20am 13.3 12.0 11.2 87 1.1 WNW 9 13 5 7 - - 0.0
19/06:10am 13.1 11.8 11.3 89 1.0 WNW 9 11 5 6 - - 0.0
19/06:00am 13.0 11.7 11.4 90 0.9 WNW 9 11 5 6 - - 0.0
19/05:50am 12.9 11.6 11.2 89 0.9 NW 9 11 5 6 - - 0.0
19/05:40am 12.7 11.7 11.1 90 0.9 WNW 7 9 4 5 - - 0.0
19/05:30am 12.6 11.6 11.0 90 0.9 WNW 7 11 4 6 - - 0.0
19/05:10am 12.3 11.9 11.0 92 0.7 WNW 4 7 2 4 - - 0.0
19/05:00am 12.3 11.8 10.8 90 0.8 NW 4 6 2 3 - - 0.0
19/04:50am 12.4 11.9 10.9 90 0.8 NW 4 6 2 3 - - 0.0
19/04:40am 12.4 12.3 10.9 90 0.8 N 2 6 1 3 - - 0.0
19/04:30am 12.6 11.5 10.8 89 1.0 NW 7 9 4 5 - - 0.0
19/04:20am 12.5 11.4 10.8 89 0.9 WNW 7 11 4 6 - - 0.0
19/04:10am 12.6 11.7 10.7 88 1.0 NW 6 7 3 4 - - 0.0
19/04:00am 12.7 11.8 10.7 88 1.1 NW 6 9 3 5 - - 0.0
19/03:50am 12.8 11.3 10.6 86 1.2 NW 9 11 5 6 - - 0.0
19/03:40am 12.7 11.6 10.7 88 1.1 NW 7 9 4 5 - - 0.0
19/03:30am 12.6 11.5 10.8 89 1.0 NNW 7 9 4 5 - - 0.0
19/03:20am 12.6 11.6 10.9 89 0.9 NNW 7 9 4 5 - - 0.0
19/03:10am 12.7 11.7 10.9 89 1.0 NNW 7 9 4 5 - - 0.0
19/03:00am 12.7 11.6 10.8 88 1.0 NNW 7 9 4 5 - - 0.0
19/02:50am 12.8 11.4 10.8 88 1.1 NNW 9 11 5 6 - - 0.0
19/02:40am 12.6 11.5 10.7 88 1.0 NNW 7 9 4 5 - - 0.0
19/02:30am 12.6 11.5 10.7 88 1.0 N 7 11 4 6 - - 0.0
19/02:20am 12.6 11.1 10.6 88 1.1 NNW 9 9 5 5 - - 0.0
19/02:10am 12.7 11.6 10.7 88 1.1 NNW 7 9 4 5 - - 0.0
19/02:00am 12.7 11.6 10.8 88 1.0 NNW 7 9 4 5 - - 0.0
19/01:50am 12.7 11.6 10.8 88 1.0 NNW 7 9 4 5 - - 0.0
19/01:40am 12.8 11.7 10.8 88 1.1 NNW 7 9 4 5 - - 0.0
19/01:30am 12.8 11.4 10.8 88 1.1 NNW 9 9 5 5 - - 0.0
19/01:20am 12.7 11.3 10.8 88 1.0 NW 9 11 5 6 - - 0.0
19/01:10am 12.8 11.8 11.0 89 1.0 NNW 7 11 4 6 - - 0.0
19/01:00am 12.7 11.8 11.3 91 0.8 NNW 7 9 4 5 - - 0.0
19/12:50am 12.7 11.9 11.2 91 0.8 NNW 6 7 3 4 - - 0.0
19/12:40am 12.7 11.9 11.2 91 0.8 NNW 6 6 3 3 - - 0.0
19/12:30am 12.7 11.9 11.1 90 0.9 NNW 6 7 3 4 - - 0.0
19/12:20am 12.7 12.3 11.1 90 0.9 N 4 6 2 3 - - 0.0
19/12:10am 12.8 12.8 11.1 89 0.9 N 2 4 1 2 - - 0.0
19/12:00am 12.8 12.8 11.0 89 1.0 NNE 2 2 1 1 - - 0.0
 
Date/Time
EST
Temp
°C
App
Temp
°C
Dew
Point
°C
Rel
Hum
%
Delta-T
°C
Wind Press
QNH
hPa
Press
MSL
hPa
Rain since
9am
mm
Dir  Spd
km/h
Gust
km/h
Spd
kts
Gust
kts
18/11:50pm 12.8 12.3 10.9 88 1.0 N 4 6 2 3 - - 0.0
18/11:40pm 12.6 12.5 10.8 89 1.0 N 2 4 1 2 - - 0.0
18/11:30pm 12.6 12.5 10.7 88 1.0 N 2 4 1 2 - - 0.0
18/11:20pm 12.5 12.3 10.6 88 1.0 N 2 2 1 1 - - 0.0
18/11:10pm 12.5 12.3 10.6 88 1.0 NNE 2 6 1 3 - - 0.0
18/11:00pm 12.6 12.4 10.6 88 1.1 NNE 2 4 1 2 - - 0.0
18/10:50pm 12.7 12.5 10.6 87 1.1 NNE 2 4 1 2 - - 0.0
18/10:40pm 12.8 12.3 10.6 86 1.2 NE 4 6 2 3 - - 0.0
18/10:30pm 12.9 12.0 10.5 85 1.3 NE 6 7 3 4 - - 0.0
18/10:20pm 13.0 12.0 10.4 84 1.4 NE 6 7 3 4 - - 0.0
18/10:10pm 13.0 11.9 10.1 82 1.5 NE 6 6 3 3 - - 0.0
18/10:00pm 12.9 11.8 9.8 81 1.6 NE 6 6 3 3 - - 0.0
18/09:50pm 13.1 12.3 9.6 79 1.8 NE 4 6 2 3 - - 0.0
18/09:40pm 13.2 12.0 9.4 78 2.0 NE 6 6 3 3 - - 0.0
18/09:30pm 13.3 12.0 9.3 77 2.1 NE 6 6 3 3 - - 0.0
18/09:20pm 13.3 12.0 9.2 76 2.1 NE 6 7 3 4 - - 0.0
18/09:10pm 13.4 11.9 9.1 75 2.2 ENE 7 9 4 5 - - 0.0
18/09:00pm 13.4 11.9 9.0 75 2.3 ENE 7 9 4 5 - - 0.0
18/08:50pm 13.4 11.8 8.9 74 2.3 ENE 7 9 4 5 - - 0.0
18/08:40pm 13.3 11.7 8.8 74 2.3 ENE 7 7 4 4 - - 0.0
18/08:30pm 13.4 12.0 8.8 74 2.4 ENE 6 7 3 4 - - 0.0
18/08:20pm 13.5 11.9 8.7 73 2.5 ENE 7 11 4 6 - - 0.0
18/08:10pm 13.5 11.5 8.7 73 2.5 ENE 9 11 5 6 - - 0.0
18/08:00pm 13.5 11.1 8.5 72 2.6 ENE 11 13 6 7 - - 0.0
18/07:50pm 13.6 11.1 8.4 71 2.7 ENE 11 13 6 7 - - 0.0
18/07:40pm 13.5 11.1 8.5 72 2.6 ENE 11 13 6 7 - - 0.0
18/07:30pm 13.5 11.4 8.2 70 2.7 ENE 9 11 5 6 - - 0.0
18/07:20pm 13.5 11.4 8.1 70 2.8 ENE 9 11 5 6 - - 0.0
18/07:10pm 13.5 11.7 8.0 69 2.8 ENE 7 9 4 5 - - 0.0
18/07:00pm 13.5 11.7 8.1 70 2.8 ENE 7 9 4 5 - - 0.0
18/06:50pm 13.4 11.6 8.1 70 2.7 ENE 7 9 4 5 - - 0.0
18/06:40pm 13.4 11.7 8.2 71 2.7 ENE 7 9 4 5 - - 0.0
18/06:30pm 13.4 11.7 8.3 71 2.6 ENE 7 9 4 5 - - 0.0
18/06:20pm 13.5 11.0 8.3 71 2.7 ENE 11 15 6 8 - - 0.0
18/06:10pm 13.5 11.4 8.4 71 2.6 ENE 9 11 5 6 - - 0.0
18/06:00pm 13.6 11.5 8.4 71 2.7 ENE 9 11 5 6 - - 0.0
18/05:50pm 13.8 11.8 8.5 70 2.7 ENE 9 11 5 6 - - 0.0
18/05:40pm 14.0 12.0 8.6 70 2.8 ENE 9 11 5 6 - - 0.0
18/05:30pm 14.3 12.3 8.7 69 2.9 ENE 9 11 5 6 - - 0.0
18/05:20pm 14.6 12.6 8.8 68 3.0 ENE 9 11 5 6 - - 0.0
18/05:10pm 14.8 12.8 8.8 67 3.1 ENE 9 11 5 6 - - 0.0
18/05:00pm 15.0 12.6 8.8 66 3.2 ENE 11 13 6 7 - - 0.0
18/04:50pm 15.2 12.5 8.8 65 3.4 E 13 15 7 8 - - 0.0
18/04:40pm 15.5 13.2 8.9 65 3.5 E 11 13 6 7 - - 0.0
18/04:30pm 15.7 13.0 8.8 63 3.6 E 13 17 7 9 - - 0.0
18/04:20pm 15.8 13.1 9.0 64 3.6 ENE 13 19 7 10 - - 0.0
18/04:10pm 16.0 13.3 8.9 62 3.7 E 13 19 7 10 - - 0.0
18/04:00pm 16.3 13.6 9.0 62 3.9 E 13 17 7 9 - - 0.0
18/03:50pm 16.4 13.3 9.0 61 3.9 E 15 19 8 10 - - 0.0
18/03:40pm 16.6 13.6 9.2 61 3.9 E 15 20 8 11 - - 0.0
18/03:30pm 17.1 14.9 9.2 59 4.2 E 11 15 6 8 - - 0.0
18/03:20pm 17.3 15.0 9.0 58 4.4 E 11 15 6 8 - - 0.0
18/03:10pm 17.2 14.2 9.1 59 4.3 E 15 19 8 10 - - 0.0
18/03:00pm 17.2 14.8 8.8 57 4.5 E 11 15 6 8 - - 0.0
18/02:50pm 16.8 14.1 8.9 59 4.2 ESE 13 15 7 8 - - 0.0
18/02:40pm 16.8 14.1 9.1 60 4.1 E 13 17 7 9 - - 0.0
18/02:30pm 17.5 14.9 9.2 58 4.4 E 13 17 7 9 - - 0.0
18/02:20pm 18.0 15.7 9.1 56 4.8 E 11 17 6 9 - - 0.0
18/02:10pm 17.3 15.4 8.9 57 4.5 E 9 13 5 7 - - 0.0
18/02:00pm 17.1 14.8 9.0 59 4.3 E 11 15 6 8 - - 0.0
18/01:50pm 17.8 15.1 9.1 56 4.7 E 13 17 7 9 - - 0.0
18/01:40pm 17.3 15.0 9.0 58 4.4 E 11 17 6 9 - - 0.0
18/01:30pm 16.6 14.8 9.3 62 3.9 E 9 11 5 6 - - 0.0
18/01:20pm 16.4 14.5 9.2 62 3.8 ENE 9 13 5 7 - - 0.0
18/01:10pm 16.8 15.5 9.3 61 4.0 E 6 13 3 7 - - 0.0
18/01:00pm 16.9 15.5 9.5 61 4.0 ENE 7 13 4 7 - - 0.0
18/12:50pm 17.1 15.3 9.4 60 4.1 ESE 9 15 5 8 - - 0.0
18/12:40pm 17.4 15.3 9.7 60 4.2 ENE 11 17 6 9 - - 0.0
18/12:30pm 17.8 15.7 9.9 60 4.3 E 11 15 6 8 - - 0.0
18/12:20pm 17.7 16.2 9.2 57 4.6 NE 7 9 4 5 - - 0.0
18/12:10pm 16.9 15.6 9.9 63 3.8 NE 7 15 4 8 - - 0.0
18/12:00pm 16.3 14.5 9.6 64 3.6 NE 9 15 5 8 - - 0.0
18/11:50am 16.4 14.7 9.7 64 3.6 ENE 9 15 5 8 - - 0.0
18/11:40am 16.4 14.6 9.5 63 3.7 ENE 9 15 5 8 - - 0.0
18/11:30am 16.8 14.6 9.3 61 4.0 E 11 13 6 7 - - 0.0
18/11:20am 16.7 14.5 9.5 62 3.9 ENE 11 13 6 7 - - 0.0
18/11:10am 17.2 15.4 9.6 61 4.1 E 9 13 5 7 - - 0.0
18/11:00am 17.4 15.7 9.9 61 4.1 ENE 9 15 5 8 - - 0.0
18/10:50am 16.7 14.6 9.8 63 3.7 ESE 11 15 6 8 - - 0.0
18/10:40am 16.7 14.5 9.3 61 3.9 ESE 11 15 6 8 - - 0.0
18/10:30am 16.3 14.1 9.3 63 3.7 E 11 15 6 8 - - 0.0
18/10:20am 16.6 14.4 9.3 62 3.9 ESE 11 15 6 8 - - 0.0
18/10:10am 16.2 13.8 8.8 61 3.9 E 11 17 6 9 - - 0.0
18/10:00am 16.1 14.7 9.5 65 3.5 E 7 15 4 8 - - 0.0
18/09:50am 16.0 14.8 9.5 65 3.5 NE 6 11 3 6 - - 0.0
18/09:40am 16.4 15.1 9.8 65 3.5 ESE 7 13 4 7 - - 0.0
18/09:30am 16.6 15.2 9.4 62 3.8 E 7 13 4 7 - - 0.0
18/09:20am 16.2 13.5 9.1 63 3.8 ENE 13 19 7 10 - - 0.0
18/09:10am 15.5 13.5 8.7 64 3.6 ENE 9 17 5 9 - - 0.0
18/09:00am 15.6 13.4 9.3 66 3.3 ESE 11 15 6 8 - - 0.0
18/08:50am 15.0 13.1 9.2 68 3.1 E 9 13 5 7 - - 0.0
18/08:40am 15.3 13.0 9.0 66 3.3 E 11 17 6 9 - - 0.0
18/08:30am 15.1 12.9 9.2 68 3.1 E 11 17 6 9 - - 0.0
18/08:20am 14.8 13.0 9.5 70 2.8 E 9 15 5 8 - - 0.0
18/08:10am 14.2 12.6 10.1 76 2.2 ENE 9 11 5 6 - - 0.0
18/08:00am 14.3 13.0 10.1 76 2.2 ENE 7 11 4 6 - - 0.0
18/07:50am 14.4 13.3 10.1 75 2.3 E 6 7 3 4 - - 0.0
18/07:40am 14.4 12.4 10.2 76 2.2 E 11 15 6 8 - - 0.0
18/07:30am 14.6 13.0 10.1 74 2.4 E 9 13 5 7 - - 0.0
18/07:20am 14.2 12.6 10.1 76 2.2 E 9 11 5 6 - - 0.0
18/07:10am 14.1 12.4 9.8 75 2.3 E 9 13 5 7 - - 0.0
18/07:00am 14.1 13.0 9.8 75 2.3 E 6 9 3 5 - - 0.0
18/06:50am 13.8 12.4 9.7 76 2.2 E 7 9 4 5 - - 0.0
18/06:40am 13.7 12.3 9.7 77 2.1 E 7 9 4 5 - - 0.0
18/06:30am 13.5 12.1 9.6 77 2.1 E 7 9 4 5 - - 0.0
18/06:20am 13.2 12.0 9.7 79 1.8 E 6 7 3 4 - - 0.0
18/06:10am 12.8 11.6 9.4 80 1.8 ENE 6 9 3 5 - - 0.0
18/06:00am 12.4 11.5 9.4 82 1.6 ENE 4 7 2 4 - - 0.0
18/05:50am 12.4 11.2 9.5 82 1.5 ENE 6 9 3 5 - - 0.0
18/05:40am 12.3 11.0 9.3 82 1.6 E 6 7 3 4 - - 0.0
18/05:30am 12.2 11.3 9.1 81 1.6 E 4 4 2 2 - - 0.0
18/05:20am 12.2 11.3 9.1 81 1.6 ENE 4 6 2 3 - - 0.0
18/05:10am 12.1 11.2 9.2 82 1.5 E 4 6 2 3 - - 0.0
18/05:00am 12.1 10.8 9.1 82 1.5 E 6 9 3 5 - - 0.0
18/04:50am 12.0 10.7 9.1 82 1.5 E 6 7 3 4 - - 0.0
18/04:40am 12.0 10.7 9.1 82 1.5 E 6 6 3 3 - - 0.0
18/04:30am 12.1 10.8 9.1 82 1.5 E 6 7 3 4 - - 0.0
18/04:20am 12.1 10.8 9.1 82 1.5 E 6 7 3 4 - - 0.0
18/04:10am 12.1 11.2 9.1 82 1.5 E 4 6 2 3 - - 0.0
18/04:00am 12.1 10.8 9.1 82 1.5 E 6 7 3 4 - - 0.0
18/03:50am 12.1 10.8 9.1 82 1.5 E 6 6 3 3 - - 0.0
18/03:40am 12.2 10.9 9.1 81 1.6 E 6 7 3 4 - - 0.0
18/03:30am 12.3 10.9 9.0 80 1.7 E 6 7 3 4 - - 0.0
18/03:20am 12.3 10.9 9.0 80 1.7 E 6 7 3 4 - - 0.0
18/03:10am 12.3 11.3 8.9 80 1.8 E 4 7 2 4 - - 0.0
18/03:00am 12.2 11.1 8.6 78 1.8 E 4 7 2 4 - - 0.0
18/02:50am 12.1 10.6 8.3 77 1.9 E 6 9 3 5 - - 0.0
18/02:40am 12.1 10.5 8.2 77 2.0 E 6 6 3 3 - - 0.0
18/02:30am 12.1 10.5 8.0 76 2.1 ESE 6 7 3 4 - - 0.0
18/02:20am 12.1 10.3 8.0 76 2.1 E 7 9 4 5 - - 0.0
18/02:10am 12.2 10.4 7.9 75 2.2 E 7 9 4 5 - - 0.0
18/02:00am 12.2 10.4 7.9 75 2.2 E 7 9 4 5 - - 0.0
18/01:50am 12.1 10.5 7.8 75 2.2 E 6 9 3 5 - - 0.0
18/01:40am 12.1 10.3 7.8 75 2.2 E 7 9 4 5 - - 0.0
18/01:30am 12.1 10.3 7.9 75 2.1 E 7 9 4 5 - - 0.0
18/01:20am 12.2 10.4 7.9 75 2.2 E 7 9 4 5 - - 0.0
18/01:10am 12.1 10.3 7.9 75 2.1 E 7 11 4 6 - - 0.0
18/01:00am 12.2 10.4 8.0 75 2.1 E 7 11 4 6 - - 0.0
18/12:50am 12.2 10.4 8.0 75 2.1 E 7 9 4 5 - - 0.0
18/12:40am 12.2 10.4 8.1 76 2.1 E 7 11 4 6 - - 0.0
18/12:30am 12.2 10.5 8.2 76 2.0 E 7 11 4 6 - - 0.0
18/12:20am 12.2 10.1 8.2 76 2.0 E 9 11 5 6 - - 0.0
18/12:10am 12.3 10.5 8.1 75 2.1 E 7 9 4 5 - - 0.0
18/12:00am 12.2 10.1 8.1 76 2.1 E 9 17 5 9 - - 0.0
 
Date/Time
EST
Temp
°C
App
Temp
°C
Dew
Point
°C
Rel
Hum
%
Delta-T
°C
Wind Press
QNH
hPa
Press
MSL
hPa
Rain since
9am
mm
Dir  Spd
km/h
Gust
km/h
Spd
kts
Gust
kts
17/11:50pm 12.1 10.4 8.2 77 2.0 E 7 11 4 6 - - 0.0
17/11:40pm 12.2 10.5 8.4 77 1.9 ESE 7 13 4 7 - - 0.0
17/11:30pm 12.3 10.2 8.3 76 2.0 ESE 9 13 5 7 - - 0.0
17/11:20pm 12.1 10.1 8.6 79 1.8 ESE 9 11 5 6 - - 0.0
17/11:10pm 12.1 10.5 8.6 79 1.8 E 7 11 4 6 - - 0.0
17/11:00pm 12.2 10.2 8.6 78 1.8 ESE 9 9 5 5 - - 0.0
17/10:50pm 12.1 10.5 8.6 79 1.8 ESE 7 9 4 5 - - 0.0
17/10:40pm 12.0 10.0 8.8 81 1.6 ESE 9 13 5 7 - - 0.0
17/10:30pm 12.1 10.2 8.9 81 1.6 ESE 9 11 5 6 - - 0.0
17/10:20pm 12.1 9.7 8.8 80 1.7 ESE 11 13 6 7 - - 0.0
17/10:10pm 12.1 9.7 8.5 78 1.8 ESE 11 15 6 8 - - 0.0
17/10:00pm 12.0 9.9 8.1 77 2.0 ESE 9 11 5 6 - - 0.0
17/09:50pm 11.9 9.7 7.9 76 2.0 ESE 9 11 5 6 - - 0.0
17/09:40pm 11.9 9.6 7.5 74 2.2 SE 9 13 5 7 - - 0.0
17/09:30pm 11.9 9.5 7.1 72 2.4 ESE 9 15 5 8 - - 0.0
17/09:20pm 12.0 9.2 6.8 70 2.6 SE 11 15 6 8 - - 0.0
17/09:10pm 11.9 9.1 7.0 72 2.4 ESE 11 17 6 9 - - 0.0
17/09:00pm 12.0 8.9 7.1 72 2.4 ESE 13 20 7 11 - - 0.0
17/08:50pm 11.9 9.5 6.9 71 2.5 ESE 9 17 5 9 - - 0.0
17/08:40pm 11.9 9.5 7.2 73 2.3 ESE 9 11 5 6 - - 0.0
17/08:30pm 12.0 9.6 7.1 72 2.4 ESE 9 13 5 7 - - 0.0
17/08:20pm 11.9 9.8 6.8 71 2.5 E 7 11 4 6 - - 0.0
17/08:10pm 11.9 9.8 6.8 71 2.5 E 7 13 4 7 - - 0.0
17/08:00pm 11.8 9.4 7.1 73 2.3 ESE 9 15 5 8 - - 0.0
17/07:50pm 11.7 9.4 7.4 75 2.1 ESE 9 13 5 7 - - 0.0
17/07:40pm 11.7 9.5 7.7 76 2.0 E 9 17 5 9 - - 0.0
17/07:30pm 11.7 9.1 7.7 76 2.0 E 11 13 6 7 - - 0.0
17/07:20pm 11.8 9.6 7.9 77 2.0 E 9 13 5 7 - - 0.0
17/07:10pm 11.8 9.3 8.0 77 1.9 E 11 13 6 7 - - 0.0
17/07:00pm 11.9 9.4 8.0 77 2.0 E 11 15 6 8 - - 0.0
17/06:50pm 12.1 9.6 8.1 76 2.0 E 11 11 6 6 - - 0.0
17/06:40pm 12.2 9.6 7.9 75 2.2 ESE 11 15 6 8 - - 0.0
17/06:30pm 12.3 9.7 7.8 74 2.3 ESE 11 13 6 7 - - 0.0
17/06:20pm 12.3 9.3 7.7 73 2.3 E 13 17 7 9 - - 0.0
17/06:10pm 12.4 9.1 7.9 74 2.3 E 15 19 8 10 - - 0.0
17/06:00pm 12.6 9.6 7.9 73 2.4 ESE 13 15 7 8 - - 0.0
17/05:50pm 12.7 9.8 8.0 73 2.4 ESE 13 17 7 9 - - 0.0
17/05:40pm 13.0 9.3 8.0 71 2.5 ESE 17 20 9 11 - - 0.0
17/05:30pm 13.3 10.0 7.9 70 2.7 ESE 15 20 8 11 - - 0.0
17/05:20pm 13.7 10.8 8.1 69 2.9 ESE 13 17 7 9 - - 0.0
17/05:10pm 14.0 10.7 7.9 66 3.1 ESE 15 20 8 11 - - 0.0
17/05:00pm 14.1 11.2 8.1 67 3.1 ESE 13 19 7 10 - - 0.0
17/04:50pm 14.4 10.7 8.1 66 3.2 ESE 17 20 9 11 - - 0.0
17/04:40pm 14.7 11.4 8.2 65 3.4 ESE 15 20 8 11 - - 0.0
17/04:30pm 14.7 11.4 8.0 64 3.4 ESE 15 22 8 12 - - 0.0
17/04:20pm 14.9 11.6 7.9 63 3.6 ESE 15 20 8 11 - - 0.0
17/04:10pm 15.0 12.1 8.1 63 3.6 ESE 13 17 7 9 - - 0.0
17/04:00pm 15.0 11.7 8.2 64 3.5 ESE 15 19 8 10 - - 0.0
17/03:50pm 15.3 12.0 8.2 62 3.7 ESE 15 22 8 12 - - 0.0
17/03:40pm 15.4 11.8 8.2 62 3.7 ESE 17 24 9 13 - - 0.0
17/03:30pm 15.6 12.0 8.3 62 3.8 ESE 17 20 9 11 - - 0.0
17/03:20pm 15.7 12.0 8.1 60 3.9 E 17 24 9 13 - - 0.0
17/03:10pm 16.0 12.7 8.0 59 4.1 ESE 15 19 8 10 - - 0.0
17/03:00pm 16.0 12.4 8.3 60 4.0 ESE 17 24 9 13 - - 0.0
17/02:50pm 15.8 13.0 8.4 61 3.9 ESE 13 15 7 8 - - 0.0
17/02:40pm 15.1 11.8 8.1 63 3.6 E 15 20 8 11 - - 0.0
17/02:30pm 15.6 12.4 8.4 62 3.7 E 15 20 8 11 - - 0.0
17/02:20pm 16.4 12.7 8.1 58 4.3 E 17 20 9 11 - - 0.0
17/02:10pm 16.2 12.5 7.9 58 4.3 ESE 17 20 9 11 - - 0.0
17/02:00pm 16.6 12.9 8.0 57 4.5 SE 17 20 9 11 - - 0.0
17/01:50pm 16.7 13.4 7.9 56 4.6 ESE 15 22 8 12 - - 0.0
17/01:40pm 16.7 13.4 8.0 56 4.5 E 15 22 8 12 - - 0.0
17/01:30pm 17.1 13.3 7.6 53 4.9 ESE 17 22 9 12 - - 0.0
17/01:20pm 16.9 14.2 7.4 53 4.9 ESE 11 15 6 8 - - 0.0
17/01:10pm 16.3 13.2 7.1 54 4.7 E 13 20 7 11 - - 0.0
17/01:00pm 16.0 12.4 6.9 54 4.6 ESE 15 19 8 10 - - 0.0
17/12:50pm 16.4 13.4 6.2 51 5.1 E 11 13 6 7 - - 0.0
17/12:40pm 16.2 12.9 6.3 52 5.0 ESE 13 17 7 9 - - 0.0
17/12:30pm 16.6 14.0 6.2 50 5.2 ESE 9 15 5 8 - - 0.0
17/12:20pm 17.5 14.4 5.6 45 5.9 SE 11 15 6 8 - - 0.0
17/12:10pm 17.7 14.5 5.3 44 6.2 SE 11 17 6 9 - - 0.0
17/12:00pm 16.9 14.3 6.1 49 5.4 E 9 15 5 8 - - 0.0
17/11:50am 17.2 13.4 5.8 47 5.7 ESE 15 17 8 9 - - 0.0
17/11:40am 17.2 13.7 5.6 46 5.8 E 13 17 7 9 - - 0.0
17/11:30am 17.2 14.1 5.4 45 5.8 E 11 15 6 8 - - 0.0
17/11:20am 16.9 14.0 6.5 50 5.3 E 11 13 6 7 - - 0.0
17/11:10am 16.4 12.8 4.9 46 5.6 E 13 17 7 9 - - 0.0
17/11:00am 16.7 13.2 5.3 47 5.6 ESE 13 17 7 9 - - 0.0
17/10:50am 16.3 12.8 5.5 48 5.3 ESE 13 19 7 10 - - 0.0
17/10:40am 16.0 12.1 5.2 48 5.3 ESE 15 20 8 11 - - 0.0
17/10:30am 16.0 12.0 5.0 48 5.4 ESE 15 20 8 11 - - 0.0
17/10:20am 15.8 11.8 5.1 49 5.2 E 15 22 8 12 - - 0.0
17/10:00am 15.5 11.2 5.4 51 4.9 ESE 17 22 9 12 - - 0.0
17/09:50am 15.1 10.5 5.5 52 4.7 ESE 19 24 10 13 - - 0.0
17/09:40am 15.2 10.9 5.1 51 4.9 ESE 17 22 9 12 - - 0.0
17/09:30am 14.9 10.3 5.4 53 4.6 ESE 19 24 10 13 - - 0.0
17/09:20am 15.1 10.8 5.4 52 4.7 E 17 20 9 11 - - 0.0
17/09:10am 15.0 11.2 5.8 54 4.5 ESE 15 19 8 10 - - 0.0
17/09:00am 14.6 10.5 6.0 56 4.2 ESE 17 24 9 13 - - 0.0
17/08:50am 14.6 10.4 5.5 54 4.4 SE 17 22 9 12 - - 0.0
17/08:40am 14.7 11.2 5.4 53 4.5 SE 13 17 7 9 - - 0.0
17/08:30am 14.3 10.0 5.1 54 4.4 SE 17 20 9 11 - - 0.0
17/08:20am 14.1 9.7 4.8 53 4.5 SE 17 24 9 13 - - 0.0
17/08:10am 14.0 9.2 4.7 53 4.4 SE 19 26 10 14 - - 0.0
17/08:00am 13.8 9.8 4.8 54 4.3 SE 15 26 8 14 - - 0.0
17/07:50am 13.4 9.1 5.4 58 3.9 SE 17 20 9 11 - - 0.0
17/07:40am 13.3 9.1 5.5 59 3.8 SSE 17 20 9 11 - - 0.0
17/07:30am 13.1 9.3 5.6 60 3.6 SE 15 17 8 9 - - 0.0
17/07:20am 12.8 9.0 5.7 62 3.4 SE 15 19 8 10 - - 0.0
17/07:10am 12.6 8.0 5.7 63 3.3 SE 19 22 10 12 - - 0.0
17/07:00am 12.3 8.1 5.6 63 3.2 SE 17 24 9 13 - - 0.0
17/06:50am 12.1 7.3 5.7 65 3.1 SE 20 24 11 13 - - 0.0
17/06:40am 11.9 7.4 6.1 67 2.8 SE 19 20 10 11 - - 0.0
17/06:30am 11.7 7.0 6.1 68 2.7 SE 20 26 11 14 - - 0.0
17/06:20am 11.5 6.9 6.3 70 2.5 SE 20 24 11 13 - - 0.0
17/06:10am 11.3 6.8 6.3 71 2.4 SE 19 24 10 13 - - 0.0
17/06:00am 11.2 6.1 6.2 71 2.4 SE 22 33 12 18 - - 0.0
17/05:50am 11.0 6.3 6.1 72 2.4 SE 20 24 11 13 - - 0.0
17/05:40am 10.9 6.2 6.1 72 2.3 SE 20 26 11 14 - - 0.0
17/05:30am 10.9 6.8 6.1 72 2.3 SE 17 22 9 12 - - 0.0
17/05:20am 10.8 6.3 6.3 74 2.2 SE 19 20 10 11 - - 0.0
17/05:10am 10.8 6.4 6.4 74 2.1 SE 19 22 10 12 - - 0.0
17/05:00am 10.8 6.8 6.5 75 2.1 SE 17 22 9 12 - - 0.0
17/04:50am 10.7 6.7 6.7 76 1.9 SE 17 20 9 11 - - 0.0
17/04:40am 10.6 7.3 6.6 76 1.9 SE 13 19 7 10 - - 0.0
17/04:30am 10.6 7.4 6.8 77 1.8 SE 13 19 7 10 - - 0.0
17/04:20am 10.5 7.7 7.0 79 1.7 SE 11 17 6 9 - - 0.0
17/04:10am 10.6 8.2 7.0 78 1.8 SE 9 13 5 7 - - 0.0
17/04:00am 10.6 7.4 6.9 78 1.8 SE 13 22 7 12 - - 0.0
17/03:50am 10.7 7.9 6.9 77 1.9 SE 11 15 6 8 - - 0.0
17/03:40am 10.7 7.9 6.8 77 1.9 SE 11 15 6 8 - - 0.0
17/03:30am 10.7 7.9 6.8 77 1.9 SE 11 15 6 8 - - 0.0
17/03:20am 10.6 8.2 6.8 77 1.8 SE 9 13 5 7 - - 0.0
17/03:10am 10.6 7.7 6.6 76 1.9 SE 11 15 6 8 - - 0.0
17/03:00am 10.5 8.0 6.6 77 1.9 ESE 9 13 5 7 - - 0.0
17/02:50am 10.5 9.0 6.6 77 1.9 ESE 4 7 2 4 - - 0.0
17/02:40am 10.6 8.5 6.5 76 2.0 ESE 7 11 4 6 - - 0.0
17/02:30am 10.6 8.7 6.5 76 2.0 E 6 9 3 5 - - 0.0
17/02:20am 10.8 9.2 6.5 75 2.1 ESE 4 7 2 4 - - 0.0
17/02:10am 11.0 9.4 6.4 73 2.2 SE 4 7 2 4 - - 0.0
17/02:00am 11.2 9.2 6.3 72 2.4 SE 6 9 3 5 - - 0.0
17/01:50am 11.2 9.2 6.3 72 2.4 SE 6 9 3 5 - - 0.0
17/01:40am 11.2 9.2 6.4 72 2.3 ESE 6 7 3 4 - - 0.0
17/01:30am 11.4 8.8 6.3 71 2.5 SE 9 13 5 7 - - 0.0
17/01:20am 11.4 8.4 6.1 70 2.6 SE 11 17 6 9 - - 0.0
17/01:10am 11.4 8.4 6.1 70 2.6 SE 11 15 6 8 - - 0.0
17/01:00am 11.5 7.7 6.0 69 2.6 SE 15 20 8 11 - - 0.0
17/12:50am 11.5 7.7 5.9 68 2.7 SE 15 19 8 10 - - 0.0
17/12:40am 11.4 8.4 5.8 68 2.7 SE 11 15 6 8 - - 0.0
17/12:30am 11.5 8.5 5.8 68 2.7 SE 11 19 6 10 - - 0.0
17/12:20am 11.6 9.0 5.9 68 2.7 SE 9 13 5 7 - - 0.0
17/12:10am 11.6 8.2 5.8 67 2.8 SE 13 15 7 8 - - 0.0
17/12:00am 11.7 8.3 5.8 67 2.8 SE 13 17 7 9 - - 0.0
 
Date/Time
EST
Temp
°C
App
Temp
°C
Dew
Point
°C
Rel
Hum
%
Delta-T
°C
Wind Press
QNH
hPa
Press
MSL
hPa
Rain since
9am
mm
Dir  Spd
km/h
Gust
km/h
Spd
kts
Gust
kts
16/11:50pm 11.7 7.9 5.8 67 2.8 SE 15 22 8 12 - - 0.0
16/11:40pm 11.7 7.9 5.6 66 2.9 SE 15 22 8 12 - - 0.0
16/11:30pm 11.7 8.2 5.6 66 2.9 SE 13 17 7 9 - - 0.0
16/11:20pm 11.8 8.3 5.5 65 3.0 SE 13 15 7 8 - - 0.0
16/11:10pm 11.7 8.2 5.4 65 3.0 SE 13 17 7 9 - - 0.0
16/11:00pm 11.8 8.3 5.4 65 3.0 SSE 13 15 7 8 - - 0.0
16/10:50pm 11.8 8.3 5.5 65 3.0 SE 13 15 7 8 - - 0.0
16/10:40pm 11.8 8.3 5.6 66 3.0 SE 13 19 7 10 - - 0.0
16/10:30pm 11.9 8.5 5.7 66 3.0 SE 13 17 7 9 - - 0.0
16/10:20pm 12.0 8.2 5.8 66 3.0 SE 15 19 8 10 - - 0.0
16/10:10pm 12.0 8.2 5.9 66 2.9 SE 15 20 8 11 - - 0.0
16/10:00pm 12.0 8.6 6.0 66 2.9 SE 13 19 7 10 - - 0.0
16/09:50pm 12.1 8.7 6.0 66 3.0 SE 13 19 7 10 - - 0.0
16/09:40pm 12.1 9.1 6.2 67 2.9 SE 11 15 6 8 - - 0.0
16/09:30pm 12.2 8.1 6.1 66 3.0 SE 17 20 9 11 - - 0.0
16/09:20pm 12.2 8.9 6.2 67 2.9 SE 13 17 7 9 - - 0.0
16/09:10pm 12.3 8.9 6.1 66 3.0 SE 13 17 7 9 - - 0.0
16/09:00pm 12.4 8.7 6.1 65 3.1 SE 15 17 8 9 - - 0.0
16/08:50pm 12.5 8.8 6.2 65 3.1 SE 15 19 8 10 - - 0.0
16/08:40pm 12.5 8.4 6.2 65 3.1 SE 17 22 9 12 - - 0.0
16/08:30pm 12.5 8.4 6.4 66 3.0 SE 17 24 9 13 - - 0.0
16/08:20pm 12.6 8.6 6.6 67 3.0 SE 17 26 9 14 - - 0.0
16/08:10pm 12.5 8.1 6.6 67 2.9 SE 19 22 10 12 - - 0.0
16/08:00pm 12.4 8.8 6.6 68 2.8 SE 15 20 8 11 - - 0.0
16/07:50pm 12.3 9.5 6.8 69 2.7 ESE 11 17 6 9 - - 0.0
16/07:40pm 12.4 9.2 6.9 69 2.7 ESE 13 17 7 9 - - 0.0
16/07:30pm 12.4 8.9 7.0 69 2.7 SE 15 20 8 11 - - 0.0
16/07:20pm 12.4 9.3 7.2 70 2.6 ESE 13 17 7 9 - - 0.0
16/07:10pm 12.4 8.9 7.4 71 2.5 ESE 15 19 8 10 - - 0.0
16/07:00pm 12.5 8.3 7.6 72 2.5 ESE 19 22 10 12 - - 0.0
16/06:50pm 12.5 8.8 7.8 73 2.4 SE 17 28 9 15 - - 0.0
16/06:40pm 12.6 9.3 8.0 73 2.3 SE 15 17 8 9 - - 0.0
16/06:30pm 12.7 8.7 8.2 74 2.3 ESE 19 26 10 14 - - 0.0
16/06:20pm 12.8 8.8 8.2 73 2.3 ESE 19 24 10 13 - - 0.0
16/06:10pm 12.9 8.9 8.2 73 2.4 ESE 19 20 10 11 - - 0.0
16/06:00pm 13.0 9.4 8.2 72 2.4 ESE 17 22 9 12 - - 0.0
16/05:50pm 13.1 8.5 8.2 72 2.5 ESE 22 24 12 13 - - 0.0
16/05:40pm 13.2 9.0 8.2 71 2.6 ESE 20 26 11 14 - - 0.0
16/05:30pm 13.3 8.7 8.2 71 2.6 ESE 22 30 12 16 - - 0.0
16/05:20pm 13.5 9.5 8.2 70 2.7 ESE 19 26 10 14 - - 0.0
16/05:10pm 13.7 9.1 8.3 70 2.8 ESE 22 28 12 15 - - 0.0
16/05:00pm 13.9 9.8 8.8 71 2.6 ESE 20 26 11 14 - - 0.0
16/04:50pm 14.1 10.2 8.8 70 2.8 E 19 20 10 11 - - 0.0
16/04:40pm 14.4 10.3 8.6 68 3.0 ESE 20 24 11 13 - - 0.0
16/04:30pm 14.5 10.0 8.6 67 3.1 E 22 26 12 14 - - 0.0
16/04:20pm 14.8 10.3 8.5 66 3.3 ESE 22 28 12 15 - - 0.0
16/04:10pm 15.2 11.1 8.5 64 3.5 ESE 20 26 11 14 - - 0.0
16/04:00pm 15.5 11.0 8.7 64 3.6 ESE 22 30 12 16 - - 0.0
16/03:50pm 15.9 12.0 8.6 62 3.8 ESE 19 22 10 12 - - 0.0
16/03:40pm 16.2 12.1 8.6 60 4.0 ESE 20 26 11 14 - - 0.0
16/03:30pm 16.3 12.3 8.9 61 3.9 ESE 20 24 11 13 - - 0.0
16/03:20pm 16.5 12.7 9.0 61 4.0 ESE 19 24 10 13 - - 0.0
16/03:10pm 16.6 12.8 9.2 61 3.9 ESE 19 26 10 14 - - 0.0
16/03:00pm 16.8 12.9 9.5 62 3.9 E 20 24 11 13 - - 0.0
16/02:50pm 17.1 13.2 9.6 61 4.0 ESE 20 28 11 15 - - 0.0
16/02:40pm 17.3 12.8 10.0 62 4.0 ESE 24 28 13 15 - - 0.0
16/02:30pm 17.8 13.8 10.6 62 4.0 ESE 22 28 12 15 - - 0.0
16/02:20pm 18.2 14.8 10.6 61 4.2 E 19 22 10 12 - - 0.0
16/02:10pm 18.1 14.5 10.4 60 4.2 ESE 20 24 11 13 - - 0.0
16/02:00pm 18.0 14.1 10.8 63 4.0 E 22 26 12 14 - - 0.0
16/01:50pm 18.0 13.7 10.6 62 4.1 E 24 28 13 15 - - 0.0
16/01:40pm 18.1 14.3 11.3 64 3.8 E 22 26 12 14 - - 0.0
16/01:30pm 17.9 14.7 11.3 65 3.7 E 19 22 10 12 - - 0.0
16/01:20pm 18.4 15.2 11.2 63 4.0 ESE 19 22 10 12 - - 0.0
16/01:10pm 18.2 14.1 11.4 64 3.8 E 24 30 13 16 - - 0.0

Other Formats:

Comma delimited format used in spreadsheet applications
http://www.bom.gov.au/fwo/IDQ60801/IDQ60801.99123.axf

JavaScript Object Notation format (JSON) in row-major order
http://www.bom.gov.au/fwo/IDQ60801/IDQ60801.99123.json